sensor_id;sensor_type;location;lat;lon;timestamp;temperature;humidity
14775;DHT22;7479;47.042;15.160;2024-03-08T07:33:38;2.50;99.90
14775;DHT22;7479;47.042;15.160;2024-03-08T07:38:32;2.70;99.90
14775;DHT22;7479;47.042;15.160;2024-03-08T07:53:33;3.30;99.90
14775;DHT22;7479;47.042;15.160;2024-03-08T07:58:27;3.40;99.90
14775;DHT22;7479;47.042;15.160;2024-03-08T08:03:21;3.60;99.90
14775;DHT22;7479;47.042;15.160;2024-03-08T08:22:23;4.00;99.90
14775;DHT22;7479;47.042;15.160;2024-03-08T09:06:59;5.10;99.90
14775;DHT22;7479;47.042;15.160;2024-03-08T09:11:53;5.30;99.90
14775;DHT22;7479;47.042;15.160;2024-03-08T09:16:47;5.60;99.90
14775;DHT22;7479;47.042;15.160;2024-03-08T09:21:41;5.90;99.90
14775;DHT22;7479;47.042;15.160;2024-03-08T09:26:36;6.10;99.90
14775;DHT22;7479;47.042;15.160;2024-03-08T09:31:30;6.30;99.90
14775;DHT22;7479;47.042;15.160;2024-03-08T09:36:23;6.40;99.90
14775;DHT22;7479;47.042;15.160;2024-03-08T09:41:17;6.70;99.90
14775;DHT22;7479;47.042;15.160;2024-03-08T09:46:14;6.80;99.90
14775;DHT22;7479;47.042;15.160;2024-03-08T09:51:08;6.70;99.90
14775;DHT22;7479;47.042;15.160;2024-03-08T09:56:06;6.70;99.90
14775;DHT22;7479;47.042;15.160;2024-03-08T10:01:00;6.70;99.90
14775;DHT22;7479;47.042;15.160;2024-03-08T10:05:56;6.60;99.90
14775;DHT22;7479;47.042;15.160;2024-03-08T10:10:52;6.60;99.90
14775;DHT22;7479;47.042;15.160;2024-03-08T10:15:46;6.70;99.90
14775;DHT22;7479;47.042;15.160;2024-03-08T10:20:40;6.90;99.90
14775;DHT22;7479;47.042;15.160;2024-03-08T10:25:35;7.10;99.90
14775;DHT22;7479;47.042;15.160;2024-03-08T10:30:29;7.70;99.90
14775;DHT22;7479;47.042;15.160;2024-03-08T10:35:22;8.30;99.90
14775;DHT22;7479;47.042;15.160;2024-03-08T10:40:17;8.70;99.90
14775;DHT22;7479;47.042;15.160;2024-03-08T10:45:19;8.30;99.90
14775;DHT22;7479;47.042;15.160;2024-03-08T10:50:18;8.40;99.90
14775;DHT22;7479;47.042;15.160;2024-03-08T10:55:14;8.50;99.90
14775;DHT22;7479;47.042;15.160;2024-03-08T11:00:11;8.80;99.90
14775;DHT22;7479;47.042;15.160;2024-03-08T11:05:10;9.10;99.90
14775;DHT22;7479;47.042;15.160;2024-03-08T11:10:18;8.60;99.90
14775;DHT22;7479;47.042;15.160;2024-03-08T11:15:12;8.50;99.90
14775;DHT22;7479;47.042;15.160;2024-03-08T11:20:11;8.60;99.90
14775;DHT22;7479;47.042;15.160;2024-03-08T11:25:09;8.30;99.90
14775;DHT22;7479;47.042;15.160;2024-03-08T11:30:04;8.20;99.90
14775;DHT22;7479;47.042;15.160;2024-03-08T11:35:18;8.10;99.90
14775;DHT22;7479;47.042;15.160;2024-03-08T11:40:13;8.00;99.90
14775;DHT22;7479;47.042;15.160;2024-03-08T11:45:09;8.00;99.90
14775;DHT22;7479;47.042;15.160;2024-03-08T11:50:04;8.00;99.90
14775;DHT22;7479;47.042;15.160;2024-03-08T11:55:06;8.10;99.90
14775;DHT22;7479;47.042;15.160;2024-03-08T12:00:00;8.20;99.90
14775;DHT22;7479;47.042;15.160;2024-03-08T12:05:00;8.10;99.90
14775;DHT22;7479;47.042;15.160;2024-03-08T12:10:17;8.10;99.90
14775;DHT22;7479;47.042;15.160;2024-03-08T12:15:11;8.40;99.90
14775;DHT22;7479;47.042;15.160;2024-03-08T12:20:12;8.50;99.90
14775;DHT22;7479;47.042;15.160;2024-03-08T12:25:09;8.20;99.90
14775;DHT22;7479;47.042;15.160;2024-03-08T12:30:18;8.10;99.90
14775;DHT22;7479;47.042;15.160;2024-03-08T12:35:13;7.90;99.90
14775;DHT22;7479;47.042;15.160;2024-03-08T12:40:08;7.80;99.90
14775;DHT22;7479;47.042;15.160;2024-03-08T12:45:03;7.70;99.90
14775;DHT22;7479;47.042;15.160;2024-03-08T12:49:59;7.60;99.90
14775;DHT22;7479;47.042;15.160;2024-03-08T12:54:53;7.40;99.90
14775;DHT22;7479;47.042;15.160;2024-03-08T12:59:47;7.20;99.90
14775;DHT22;7479;47.042;15.160;2024-03-08T13:04:41;7.20;99.90
14775;DHT22;7479;47.042;15.160;2024-03-08T13:09:38;7.20;99.90
14775;DHT22;7479;47.042;15.160;2024-03-08T13:14:32;7.30;99.90
14775;DHT22;7479;47.042;15.160;2024-03-08T13:19:27;7.40;99.90
14775;DHT22;7479;47.042;15.160;2024-03-08T13:24:21;7.30;99.90
14775;DHT22;7479;47.042;15.160;2024-03-08T13:29:16;7.20;99.90
14775;DHT22;7479;47.042;15.160;2024-03-08T13:34:10;7.10;99.90
14775;DHT22;7479;47.042;15.160;2024-03-08T13:39:04;7.10;99.90
14775;DHT22;7479;47.042;15.160;2024-03-08T13:44:07;7.00;99.90
14775;DHT22;7479;47.042;15.160;2024-03-08T13:49:04;6.80;99.90
14775;DHT22;7479;47.042;15.160;2024-03-08T13:54:00;6.80;99.90
